sensor_id;sensor_type;location;lat;lon;timestamp;temperature;humidity
41220;DHT22;26951;47.338;9.196;2023-05-07T00:01:51;11.10;58.50
41220;DHT22;26951;47.338;9.196;2023-05-07T00:04:36;11.20;58.80
41220;DHT22;26951;47.338;9.196;2023-05-07T00:07:21;11.10;58.60
41220;DHT22;26951;47.338;9.196;2023-05-07T00:10:06;11.20;58.40
41220;DHT22;26951;47.338;9.196;2023-05-07T00:12:50;11.20;58.60
41220;DHT22;26951;47.338;9.196;2023-05-07T00:15:34;11.20;59.10
41220;DHT22;26951;47.338;9.196;2023-05-07T00:18:19;11.20;58.80
41220;DHT22;26951;47.338;9.196;2023-05-07T00:21:06;11.30;58.50
41220;DHT22;26951;47.338;9.196;2023-05-07T00:23:50;11.20;59.00
41220;DHT22;26951;47.338;9.196;2023-05-07T00:26:34;11.20;59.60
41220;DHT22;26951;47.338;9.196;2023-05-07T00:29:18;11.20;59.20
41220;DHT22;26951;47.338;9.196;2023-05-07T00:32:03;11.20;59.40
41220;DHT22;26951;47.338;9.196;2023-05-07T00:34:47;11.20;59.20
41220;DHT22;26951;47.338;9.196;2023-05-07T00:37:31;11.20;59.30
41220;DHT22;26951;47.338;9.196;2023-05-07T00:40:15;11.20;59.50
41220;DHT22;26951;47.338;9.196;2023-05-07T00:42:59;11.20;61.20
41220;DHT22;26951;47.338;9.196;2023-05-07T00:45:43;11.20;60.50
41220;DHT22;26951;47.338;9.196;2023-05-07T00:48:27;11.20;60.30
41220;DHT22;26951;47.338;9.196;2023-05-07T00:51:12;11.20;60.10
41220;DHT22;26951;47.338;9.196;2023-05-07T00:53:56;11.20;60.50
41220;DHT22;26951;47.338;9.196;2023-05-07T00:56:41;11.10;60.50
41220;DHT22;26951;47.338;9.196;2023-05-07T00:59:25;11.10;60.20
41220;DHT22;26951;47.338;9.196;2023-05-07T01:02:09;11.10;60.40
41220;DHT22;26951;47.338;9.196;2023-05-07T01:04:54;11.00;60.20
41220;DHT22;26951;47.338;9.196;2023-05-07T01:07:40;11.00;60.10
41220;DHT22;26951;47.338;9.196;2023-05-07T01:10:26;11.00;60.90
41220;DHT22;26951;47.338;9.196;2023-05-07T01:13:11;11.00;61.10
41220;DHT22;26951;47.338;9.196;2023-05-07T01:15:56;11.00;59.80
41220;DHT22;26951;47.338;9.196;2023-05-07T01:18:40;11.00;59.70
41220;DHT22;26951;47.338;9.196;2023-05-07T01:21:25;11.00;59.50
41220;DHT22;26951;47.338;9.196;2023-05-07T01:24:11;11.00;59.70
41220;DHT22;26951;47.338;9.196;2023-05-07T01:26:55;11.00;60.40
41220;DHT22;26951;47.338;9.196;2023-05-07T01:29:39;11.00;60.70
41220;DHT22;26951;47.338;9.196;2023-05-07T01:32:29;10.90;59.50
41220;DHT22;26951;47.338;9.196;2023-05-07T01:35:24;10.90;59.90
41220;DHT22;26951;47.338;9.196;2023-05-07T01:38:09;10.90;60.00
41220;DHT22;26951;47.338;9.196;2023-05-07T01:40:53;10.80;59.70
41220;DHT22;26951;47.338;9.196;2023-05-07T01:43:38;10.80;60.40
41220;DHT22;26951;47.338;9.196;2023-05-07T01:46:24;10.80;60.30
41220;DHT22;26951;47.338;9.196;2023-05-07T01:49:09;10.80;59.80
41220;DHT22;26951;47.338;9.196;2023-05-07T01:51:53;10.70;59.40
41220;DHT22;26951;47.338;9.196;2023-05-07T01:54:37;10.70;59.80
41220;DHT22;26951;47.338;9.196;2023-05-07T01:57:21;10.60;60.30
41220;DHT22;26951;47.338;9.196;2023-05-07T02:00:06;10.60;60.70
41220;DHT22;26951;47.338;9.196;2023-05-07T02:02:52;10.60;60.60
41220;DHT22;26951;47.338;9.196;2023-05-07T02:05:37;10.60;60.10
41220;DHT22;26951;47.338;9.196;2023-05-07T02:08:21;10.50;60.10
41220;DHT22;26951;47.338;9.196;2023-05-07T02:11:05;10.50;60.00
41220;DHT22;26951;47.338;9.196;2023-05-07T02:13:49;10.50;59.90
41220;DHT22;26951;47.338;9.196;2023-05-07T02:16:33;10.40;60.10
41220;DHT22;26951;47.338;9.196;2023-05-07T02:19:17;10.40;60.30
41220;DHT22;26951;47.338;9.196;2023-05-07T02:22:02;10.40;61.00
41220;DHT22;26951;47.338;9.196;2023-05-07T02:24:46;10.40;61.40
41220;DHT22;26951;47.338;9.196;2023-05-07T02:27:30;10.40;60.10
41220;DHT22;26951;47.338;9.196;2023-05-07T02:30:14;10.30;60.00
41220;DHT22;26951;47.338;9.196;2023-05-07T02:32:58;10.30;59.90
41220;DHT22;26951;47.338;9.196;2023-05-07T02:35:42;10.20;59.90
41220;DHT22;26951;47.338;9.196;2023-05-07T02:38:27;10.20;60.70
41220;DHT22;26951;47.338;9.196;2023-05-07T02:41:11;10.20;60.50
41220;DHT22;26951;47.338;9.196;2023-05-07T02:43:55;10.20;60.90
41220;DHT22;26951;47.338;9.196;2023-05-07T02:46:39;10.20;60.50
41220;DHT22;26951;47.338;9.196;2023-05-07T02:49:23;10.20;59.90
41220;DHT22;26951;47.338;9.196;2023-05-07T02:52:08;10.20;60.10
41220;DHT22;26951;47.338;9.196;2023-05-07T02:54:52;10.20;60.00
41220;DHT22;26951;47.338;9.196;2023-05-07T02:57:36;10.10;60.00
41220;DHT22;26951;47.338;9.196;2023-05-07T03:00:20;10.10;60.10
41220;DHT22;26951;47.338;9.196;2023-05-07T03:03:05;10.10;60.60
41220;DHT22;26951;47.338;9.196;2023-05-07T03:05:49;10.10;60.20
41220;DHT22;26951;47.338;9.196;2023-05-07T03:08:33;10.10;59.80
41220;DHT22;26951;47.338;9.196;2023-05-07T03:11:17;10.10;59.70
41220;DHT22;26951;47.338;9.196;2023-05-07T03:14:02;10.10;59.50
41220;DHT22;26951;47.338;9.196;2023-05-07T03:16:46;10.00;60.40
41220;DHT22;26951;47.338;9.196;2023-05-07T03:19:30;10.00;60.90
41220;DHT22;26951;47.338;9.196;2023-05-07T03:22:14;10.00;60.70
41220;DHT22;26951;47.338;9.196;2023-05-07T03:24:58;9.90;60.90
41220;DHT22;26951;47.338;9.196;2023-05-07T03:27:43;9.90;60.70
41220;DHT22;26951;47.338;9.196;2023-05-07T03:30:27;9.80;61.10
41220;DHT22;26951;47.338;9.196;2023-05-07T03:33:12;9.80;61.50
41220;DHT22;26951;47.338;9.196;2023-05-07T03:35:56;9.80;61.50
41220;DHT22;26951;47.338;9.196;2023-05-07T03:38:40;9.70;61.90
41220;DHT22;26951;47.338;9.196;2023-05-07T03:41:24;9.70;62.20
41220;DHT22;26951;47.338;9.196;2023-05-07T03:44:09;9.70;62.20
41220;DHT22;26951;47.338;9.196;2023-05-07T03:46:54;9.70;62.50
41220;DHT22;26951;47.338;9.196;2023-05-07T03:49:39;9.70;62.70
41220;DHT22;26951;47.338;9.196;2023-05-07T03:52:23;9.70;62.90
41220;DHT22;26951;47.338;9.196;2023-05-07T03:55:09;9.70;62.90
41220;DHT22;26951;47.338;9.196;2023-05-07T03:57:53;9.60;63.00
41220;DHT22;26951;47.338;9.196;2023-05-07T04:00:38;9.70;63.10
41220;DHT22;26951;47.338;9.196;2023-05-07T04:03:24;9.70;62.80
41220;DHT22;26951;47.338;9.196;2023-05-07T04:06:08;9.70;62.80
41220;DHT22;26951;47.338;9.196;2023-05-07T04:08:52;9.60;62.50
41220;DHT22;26951;47.338;9.196;2023-05-07T04:11:36;9.60;63.30
41220;DHT22;26951;47.338;9.196;2023-05-07T04:14:21;9.50;63.60
41220;DHT22;26951;47.338;9.196;2023-05-07T04:17:05;9.60;64.10
41220;DHT22;26951;47.338;9.196;2023-05-07T04:19:50;9.60;64.50
41220;DHT22;26951;47.338;9.196;2023-05-07T04:22:34;9.60;63.80
41220;DHT22;26951;47.338;9.196;2023-05-07T04:25:18;9.60;63.80
41220;DHT22;26951;47.338;9.196;2023-05-07T04:28:03;9.60;64.00
41220;DHT22;26951;47.338;9.196;2023-05-07T04:30:47;9.60;64.30
41220;DHT22;26951;47.338;9.196;2023-05-07T04:33:32;9.60;65.40
41220;DHT22;26951;47.338;9.196;2023-05-07T04:36:17;9.60;65.80
41220;DHT22;26951;47.338;9.196;2023-05-07T04:39:02;9.60;66.90
41220;DHT22;26951;47.338;9.196;2023-05-07T04:41:46;9.70;66.80
41220;DHT22;26951;47.338;9.196;2023-05-07T04:44:30;9.80;67.30
41220;DHT22;26951;47.338;9.196;2023-05-07T04:47:15;9.80;67.50
41220;DHT22;26951;47.338;9.196;2023-05-07T04:49:59;9.80;67.20
41220;DHT22;26951;47.338;9.196;2023-05-07T04:52:43;9.90;68.50
41220;DHT22;26951;47.338;9.196;2023-05-07T04:55:27;9.90;69.10
41220;DHT22;26951;47.338;9.196;2023-05-07T04:58:12;10.00;68.50
41220;DHT22;26951;47.338;9.196;2023-05-07T05:00:57;10.10;69.60
41220;DHT22;26951;47.338;9.196;2023-05-07T05:03:41;10.10;68.90
41220;DHT22;26951;47.338;9.196;2023-05-07T05:06:26;10.20;68.90
41220;DHT22;26951;47.338;9.196;2023-05-07T05:09:10;10.30;69.30
41220;DHT22;26951;47.338;9.196;2023-05-07T05:11:54;10.30;69.80
41220;DHT22;26951;47.338;9.196;2023-05-07T05:14:39;10.40;70.50
41220;DHT22;26951;47.338;9.196;2023-05-07T05:17:23;10.50;71.30
41220;DHT22;26951;47.338;9.196;2023-05-07T05:20:07;10.60;70.80
41220;DHT22;26951;47.338;9.196;2023-05-07T05:22:55;10.70;71.20
41220;DHT22;26951;47.338;9.196;2023-05-07T05:25:39;10.70;71.70
41220;DHT22;26951;47.338;9.196;2023-05-07T05:28:24;10.80;71.70
41220;DHT22;26951;47.338;9.196;2023-05-07T05:31:08;10.90;72.50
41220;DHT22;26951;47.338;9.196;2023-05-07T05:33:52;11.00;73.30
41220;DHT22;26951;47.338;9.196;2023-05-07T05:36:37;11.10;74.40
41220;DHT22;26951;47.338;9.196;2023-05-07T05:39:21;11.30;75.90
41220;DHT22;26951;47.338;9.196;2023-05-07T05:42:07;11.40;77.20
41220;DHT22;26951;47.338;9.196;2023-05-07T05:44:51;11.50;77.30
41220;DHT22;26951;47.338;9.196;2023-05-07T05:47:35;11.70;77.80
41220;DHT22;26951;47.338;9.196;2023-05-07T05:50:19;11.80;79.10
41220;DHT22;26951;47.338;9.196;2023-05-07T05:53:03;12.10;79.80
41220;DHT22;26951;47.338;9.196;2023-05-07T05:55:48;12.20;80.50
41220;DHT22;26951;47.338;9.196;2023-05-07T05:58:32;12.40;80.90
41220;DHT22;26951;47.338;9.196;2023-05-07T06:01:17;12.60;80.60
41220;DHT22;26951;47.338;9.196;2023-05-07T06:04:01;12.80;80.00
41220;DHT22;26951;47.338;9.196;2023-05-07T06:06:46;13.00;78.50
41220;DHT22;26951;47.338;9.196;2023-05-07T06:09:30;13.20;79.30
41220;DHT22;26951;47.338;9.196;2023-05-07T06:12:14;13.40;78.70
41220;DHT22;26951;47.338;9.196;2023-05-07T06:14:58;13.60;75.60
41220;DHT22;26951;47.338;9.196;2023-05-07T06:17:42;13.80;75.40
41220;DHT22;26951;47.338;9.196;2023-05-07T06:20:26;14.00;74.30
41220;DHT22;26951;47.338;9.196;2023-05-07T06:23:10;14.20;72.70
41220;DHT22;26951;47.338;9.196;2023-05-07T06:25:54;14.30;70.90
41220;DHT22;26951;47.338;9.196;2023-05-07T06:28:39;14.50;69.60
41220;DHT22;26951;47.338;9.196;2023-05-07T06:31:23;14.60;66.30
41220;DHT22;26951;47.338;9.196;2023-05-07T06:34:07;14.70;66.40
41220;DHT22;26951;47.338;9.196;2023-05-07T06:36:51;14.80;63.60
41220;DHT22;26951;47.338;9.196;2023-05-07T06:39:35;14.90;62.80
41220;DHT22;26951;47.338;9.196;2023-05-07T06:42:19;15.10;65.70
41220;DHT22;26951;47.338;9.196;2023-05-07T06:45:04;15.30;67.00
41220;DHT22;26951;47.338;9.196;2023-05-07T06:47:49;15.40;62.50
41220;DHT22;26951;47.338;9.196;2023-05-07T06:50:33;15.50;59.50
41220;DHT22;26951;47.338;9.196;2023-05-07T06:53:17;15.60;58.50
41220;DHT22;26951;47.338;9.196;2023-05-07T06:56:01;15.70;58.30
41220;DHT22;26951;47.338;9.196;2023-05-07T06:58:45;15.90;58.70
41220;DHT22;26951;47.338;9.196;2023-05-07T07:01:29;16.00;59.70
41220;DHT22;26951;47.338;9.196;2023-05-07T07:04:13;16.00;58.80
41220;DHT22;26951;47.338;9.196;2023-05-07T07:06:58;16.10;58.40
41220;DHT22;26951;47.338;9.196;2023-05-07T07:09:42;16.10;58.20
41220;DHT22;26951;47.338;9.196;2023-05-07T07:12:26;16.20;56.00
41220;DHT22;26951;47.338;9.196;2023-05-07T07:15:10;16.20;57.40
41220;DHT22;26951;47.338;9.196;2023-05-07T07:17:55;16.30;57.20
41220;DHT22;26951;47.338;9.196;2023-05-07T07:20:39;16.30;55.10
41220;DHT22;26951;47.338;9.196;2023-05-07T07:23:23;16.40;55.40
41220;DHT22;26951;47.338;9.196;2023-05-07T07:26:07;16.40;55.10
41220;DHT22;26951;47.338;9.196;2023-05-07T07:28:51;16.50;56.10
41220;DHT22;26951;47.338;9.196;2023-05-07T07:31:36;16.60;53.30
41220;DHT22;26951;47.338;9.196;2023-05-07T07:34:19;16.70;52.30
41220;DHT22;26951;47.338;9.196;2023-05-07T07:37:04;16.80;53.70
41220;DHT22;26951;47.338;9.196;2023-05-07T07:39:50;16.90;52.30
41220;DHT22;26951;47.338;9.196;2023-05-07T07:42:34;17.00;53.80
41220;DHT22;26951;47.338;9.196;2023-05-07T07:45:18;17.10;52.00
41220;DHT22;26951;47.338;9.196;2023-05-07T07:48:02;17.10;50.20
41220;DHT22;26951;47.338;9.196;2023-05-07T07:50:49;17.20;52.10
41220;DHT22;26951;47.338;9.196;2023-05-07T07:53:34;17.40;49.50
41220;DHT22;26951;47.338;9.196;2023-05-07T07:56:18;17.50;48.40
41220;DHT22;26951;47.338;9.196;2023-05-07T07:59:02;17.60;46.70
41220;DHT22;26951;47.338;9.196;2023-05-07T08:01:47;17.60;48.10
41220;DHT22;26951;47.338;9.196;2023-05-07T08:04:34;17.70;48.30
41220;DHT22;26951;47.338;9.196;2023-05-07T08:07:19;17.80;46.30
41220;DHT22;26951;47.338;9.196;2023-05-07T08:10:07;17.90;46.20
41220;DHT22;26951;47.338;9.196;2023-05-07T08:12:51;18.00;48.90
41220;DHT22;26951;47.338;9.196;2023-05-07T08:15:35;18.10;48.30
41220;DHT22;26951;47.338;9.196;2023-05-07T08:18:19;18.20;43.50
41220;DHT22;26951;47.338;9.196;2023-05-07T08:21:04;18.30;46.50
41220;DHT22;26951;47.338;9.196;2023-05-07T08:23:48;18.50;47.60
41220;DHT22;26951;47.338;9.196;2023-05-07T08:26:32;18.60;45.10
41220;DHT22;26951;47.338;9.196;2023-05-07T08:29:16;18.70;44.80
41220;DHT22;26951;47.338;9.196;2023-05-07T08:32:00;18.80;42.30
41220;DHT22;26951;47.338;9.196;2023-05-07T08:34:44;18.90;42.80
41220;DHT22;26951;47.338;9.196;2023-05-07T08:37:29;19.10;42.70
41220;DHT22;26951;47.338;9.196;2023-05-07T08:40:13;19.10;43.10
41220;DHT22;26951;47.338;9.196;2023-05-07T08:42:57;19.20;43.60
41220;DHT22;26951;47.338;9.196;2023-05-07T08:45:42;19.40;43.00
41220;DHT22;26951;47.338;9.196;2023-05-07T08:48:29;19.50;41.80
41220;DHT22;26951;47.338;9.196;2023-05-07T08:51:17;19.70;40.90
41220;DHT22;26951;47.338;9.196;2023-05-07T08:54:01;19.80;42.20
41220;DHT22;26951;47.338;9.196;2023-05-07T08:56:46;19.90;39.20
41220;DHT22;26951;47.338;9.196;2023-05-07T08:59:30;20.00;41.30
41220;DHT22;26951;47.338;9.196;2023-05-07T09:02:14;20.10;40.20
41220;DHT22;26951;47.338;9.196;2023-05-07T09:05:00;20.20;40.70
41220;DHT22;26951;47.338;9.196;2023-05-07T09:07:44;20.30;41.60
41220;DHT22;26951;47.338;9.196;2023-05-07T09:10:30;20.40;43.30
41220;DHT22;26951;47.338;9.196;2023-05-07T09:13:16;20.60;41.80
41220;DHT22;26951;47.338;9.196;2023-05-07T09:16:11;20.70;42.20
41220;DHT22;26951;47.338;9.196;2023-05-07T09:18:58;20.90;41.10
41220;DHT22;26951;47.338;9.196;2023-05-07T09:21:42;20.80;40.10
41220;DHT22;26951;47.338;9.196;2023-05-07T09:24:26;20.90;42.20
41220;DHT22;26951;47.338;9.196;2023-05-07T09:27:12;21.00;39.00
41220;DHT22;26951;47.338;9.196;2023-05-07T09:29:56;21.10;38.60
41220;DHT22;26951;47.338;9.196;2023-05-07T09:32:41;21.20;41.00
41220;DHT22;26951;47.338;9.196;2023-05-07T09:35:26;21.20;39.10
41220;DHT22;26951;47.338;9.196;2023-05-07T09:38:13;21.30;42.40
41220;DHT22;26951;47.338;9.196;2023-05-07T09:43:54;21.40;40.10
41220;DHT22;26951;47.338;9.196;2023-05-07T09:46:42;21.50;36.40
41220;DHT22;26951;47.338;9.196;2023-05-07T09:49:29;21.60;39.20
41220;DHT22;26951;47.338;9.196;2023-05-07T09:52:17;21.70;38.30
41220;DHT22;26951;47.338;9.196;2023-05-07T09:55:02;21.80;38.30
41220;DHT22;26951;47.338;9.196;2023-05-07T09:57:51;21.90;39.40
41220;DHT22;26951;47.338;9.196;2023-05-07T10:00:37;21.80;39.10
41220;DHT22;26951;47.338;9.196;2023-05-07T10:03:24;21.80;40.50
41220;DHT22;26951;47.338;9.196;2023-05-07T10:06:12;21.80;40.80
41220;DHT22;26951;47.338;9.196;2023-05-07T10:08:57;21.70;39.20
41220;DHT22;26951;47.338;9.196;2023-05-07T10:11:41;21.70;37.00
41220;DHT22;26951;47.338;9.196;2023-05-07T10:14:28;21.60;37.50
41220;DHT22;26951;47.338;9.196;2023-05-07T10:17:13;21.50;37.70
41220;DHT22;26951;47.338;9.196;2023-05-07T10:19:59;21.60;40.10
41220;DHT22;26951;47.338;9.196;2023-05-07T10:22:46;21.60;39.10
41220;DHT22;26951;47.338;9.196;2023-05-07T10:25:32;21.60;37.50
41220;DHT22;26951;47.338;9.196;2023-05-07T10:28:18;21.60;39.40
41220;DHT22;26951;47.338;9.196;2023-05-07T10:31:44;21.70;41.00
41220;DHT22;26951;47.338;9.196;2023-05-07T10:34:36;21.80;40.80
41220;DHT22;26951;47.338;9.196;2023-05-07T10:37:22;21.80;36.80
41220;DHT22;26951;47.338;9.196;2023-05-07T10:40:07;21.90;37.90
41220;DHT22;26951;47.338;9.196;2023-05-07T10:42:59;21.90;39.90
41220;DHT22;26951;47.338;9.196;2023-05-07T10:46:19;22.00;39.30
41220;DHT22;26951;47.338;9.196;2023-05-07T10:58:27;22.60;40.70
41220;DHT22;26951;47.338;9.196;2023-05-07T11:01:11;22.70;38.50
41220;DHT22;26951;47.338;9.196;2023-05-07T11:04:15;22.80;33.90
41220;DHT22;26951;47.338;9.196;2023-05-07T11:10:03;23.10;38.20
41220;DHT22;26951;47.338;9.196;2023-05-07T11:12:49;23.30;36.50
41220;DHT22;26951;47.338;9.196;2023-05-07T11:15:39;23.40;36.80
41220;DHT22;26951;47.338;9.196;2023-05-07T11:18:23;23.50;36.60
41220;DHT22;26951;47.338;9.196;2023-05-07T11:21:08;23.70;36.10
41220;DHT22;26951;47.338;9.196;2023-05-07T11:23:56;23.90;36.20
41220;DHT22;26951;47.338;9.196;2023-05-07T11:26:45;24.10;35.00
41220;DHT22;26951;47.338;9.196;2023-05-07T11:29:30;24.20;29.80
41220;DHT22;26951;47.338;9.196;2023-05-07T11:32:14;24.20;31.30
41220;DHT22;26951;47.338;9.196;2023-05-07T11:35:00;24.20;33.40
41220;DHT22;26951;47.338;9.196;2023-05-07T11:37:45;24.20;36.10
41220;DHT22;26951;47.338;9.196;2023-05-07T11:40:29;24.20;32.60
41220;DHT22;26951;47.338;9.196;2023-05-07T11:43:14;24.20;33.80
41220;DHT22;26951;47.338;9.196;2023-05-07T11:46:10;24.30;34.10
41220;DHT22;26951;47.338;9.196;2023-05-07T11:48:55;24.50;33.70
41220;DHT22;26951;47.338;9.196;2023-05-07T11:51:39;24.50;31.30
41220;DHT22;26951;47.338;9.196;2023-05-07T11:54:25;24.50;31.10
41220;DHT22;26951;47.338;9.196;2023-05-07T11:57:14;24.60;32.40
41220;DHT22;26951;47.338;9.196;2023-05-07T11:59:59;24.50;31.40
41220;DHT22;26951;47.338;9.196;2023-05-07T12:02:45;24.40;31.50
41220;DHT22;26951;47.338;9.196;2023-05-07T12:05:30;24.30;31.60
41220;DHT22;26951;47.338;9.196;2023-05-07T12:08:15;24.30;33.00
41220;DHT22;26951;47.338;9.196;2023-05-07T12:11:02;24.40;28.50
41220;DHT22;26951;47.338;9.196;2023-05-07T12:13:46;24.50;30.70
41220;DHT22;26951;47.338;9.196;2023-05-07T12:16:31;24.40;32.60
41220;DHT22;26951;47.338;9.196;2023-05-07T12:19:16;24.50;33.80
41220;DHT22;26951;47.338;9.196;2023-05-07T12:22:01;24.60;36.70
41220;DHT22;26951;47.338;9.196;2023-05-07T12:24:47;24.60;38.50
41220;DHT22;26951;47.338;9.196;2023-05-07T12:27:32;24.70;37.10
41220;DHT22;26951;47.338;9.196;2023-05-07T12:30:16;24.70;38.40
41220;DHT22;26951;47.338;9.196;2023-05-07T12:33:01;24.90;39.90
41220;DHT22;26951;47.338;9.196;2023-05-07T12:35:47;25.00;40.30
41220;DHT22;26951;47.338;9.196;2023-05-07T12:38:38;25.10;39.90
41220;DHT22;26951;47.338;9.196;2023-05-07T12:41:22;25.20;38.30
41220;DHT22;26951;47.338;9.196;2023-05-07T12:44:11;25.20;37.30
41220;DHT22;26951;47.338;9.196;2023-05-07T12:46:55;25.00;37.30
41220;DHT22;26951;47.338;9.196;2023-05-07T12:49:41;24.80;37.80
41220;DHT22;26951;47.338;9.196;2023-05-07T12:52:25;24.40;36.60
41220;DHT22;26951;47.338;9.196;2023-05-07T12:55:14;24.10;38.60
41220;DHT22;26951;47.338;9.196;2023-05-07T12:58:00;23.90;38.60
41220;DHT22;26951;47.338;9.196;2023-05-07T13:00:48;23.80;40.10
41220;DHT22;26951;47.338;9.196;2023-05-07T13:03:34;23.80;41.10
41220;DHT22;26951;47.338;9.196;2023-05-07T13:06:18;23.80;39.70
41220;DHT22;26951;47.338;9.196;2023-05-07T13:09:03;23.80;42.70
41220;DHT22;26951;47.338;9.196;2023-05-07T13:11:48;23.90;42.10
41220;DHT22;26951;47.338;9.196;2023-05-07T13:14:32;24.00;41.00
41220;DHT22;26951;47.338;9.196;2023-05-07T13:17:17;24.00;41.40
41220;DHT22;26951;47.338;9.196;2023-05-07T13:20:03;24.10;41.60
41220;DHT22;26951;47.338;9.196;2023-05-07T13:22:47;24.10;41.00
41220;DHT22;26951;47.338;9.196;2023-05-07T13:25:31;24.20;42.00
41220;DHT22;26951;47.338;9.196;2023-05-07T13:28:16;24.20;40.40
41220;DHT22;26951;47.338;9.196;2023-05-07T13:31:01;24.10;41.00
41220;DHT22;26951;47.338;9.196;2023-05-07T13:33:45;24.00;40.90
41220;DHT22;26951;47.338;9.196;2023-05-07T13:36:29;23.90;40.30
41220;DHT22;26951;47.338;9.196;2023-05-07T13:39:17;23.90;39.20
41220;DHT22;26951;47.338;9.196;2023-05-07T13:42:01;23.80;39.80
41220;DHT22;26951;47.338;9.196;2023-05-07T13:44:45;23.60;39.10
41220;DHT22;26951;47.338;9.196;2023-05-07T13:47:29;23.40;39.70
41220;DHT22;26951;47.338;9.196;2023-05-07T13:50:13;23.20;40.90
41220;DHT22;26951;47.338;9.196;2023-05-07T13:52:57;23.10;41.60
41220;DHT22;26951;47.338;9.196;2023-05-07T13:55:41;22.70;40.90
41220;DHT22;26951;47.338;9.196;2023-05-07T13:58:26;22.60;41.70
41220;DHT22;26951;47.338;9.196;2023-05-07T14:01:10;22.40;42.20
41220;DHT22;26951;47.338;9.196;2023-05-07T14:03:55;22.30;42.90
41220;DHT22;26951;47.338;9.196;2023-05-07T14:06:39;22.20;42.20
41220;DHT22;26951;47.338;9.196;2023-05-07T14:09:23;22.10;44.00
41220;DHT22;26951;47.338;9.196;2023-05-07T14:12:07;22.00;43.40
41220;DHT22;26951;47.338;9.196;2023-05-07T14:14:51;21.90;42.20
41220;DHT22;26951;47.338;9.196;2023-05-07T14:17:36;21.70;43.90
41220;DHT22;26951;47.338;9.196;2023-05-07T14:20:20;21.40;43.20
41220;DHT22;26951;47.338;9.196;2023-05-07T14:23:04;21.10;42.60
41220;DHT22;26951;47.338;9.196;2023-05-07T14:25:48;20.90;43.40
41220;DHT22;26951;47.338;9.196;2023-05-07T14:28:33;20.60;49.90
41220;DHT22;26951;47.338;9.196;2023-05-07T14:31:16;20.40;53.40
41220;DHT22;26951;47.338;9.196;2023-05-07T14:34:01;19.90;51.60
41220;DHT22;26951;47.338;9.196;2023-05-07T14:36:45;19.40;51.60
41220;DHT22;26951;47.338;9.196;2023-05-07T14:39:30;19.00;51.80
41220;DHT22;26951;47.338;9.196;2023-05-07T14:42:14;18.30;51.60
41220;DHT22;26951;47.338;9.196;2023-05-07T14:44:58;17.60;53.90
41220;DHT22;26951;47.338;9.196;2023-05-07T14:47:43;17.00;54.70
41220;DHT22;26951;47.338;9.196;2023-05-07T14:50:27;16.40;56.80
41220;DHT22;26951;47.338;9.196;2023-05-07T14:53:11;16.00;58.10
41220;DHT22;26951;47.338;9.196;2023-05-07T14:55:55;15.70;60.00
41220;DHT22;26951;47.338;9.196;2023-05-07T14:58:39;15.50;62.30
41220;DHT22;26951;47.338;9.196;2023-05-07T15:01:25;15.30;62.40
41220;DHT22;26951;47.338;9.196;2023-05-07T15:04:09;15.20;62.90
41220;DHT22;26951;47.338;9.196;2023-05-07T15:06:54;15.10;64.70
41220;DHT22;26951;47.338;9.196;2023-05-07T15:09:38;15.00;65.70
41220;DHT22;26951;47.338;9.196;2023-05-07T15:12:22;15.00;67.00
41220;DHT22;26951;47.338;9.196;2023-05-07T15:15:06;14.90;67.20
41220;DHT22;26951;47.338;9.196;2023-05-07T15:17:50;14.90;66.70
41220;DHT22;26951;47.338;9.196;2023-05-07T15:20:36;14.90;67.10
41220;DHT22;26951;47.338;9.196;2023-05-07T15:23:20;14.90;67.30
41220;DHT22;26951;47.338;9.196;2023-05-07T15:26:04;14.90;67.30
41220;DHT22;26951;47.338;9.196;2023-05-07T15:28:49;14.90;67.70
41220;DHT22;26951;47.338;9.196;2023-05-07T15:31:34;14.90;67.20
41220;DHT22;26951;47.338;9.196;2023-05-07T15:34:18;14.80;66.30
41220;DHT22;26951;47.338;9.196;2023-05-07T15:37:02;14.80;66.80
41220;DHT22;26951;47.338;9.196;2023-05-07T15:39:46;14.80;67.10
41220;DHT22;26951;47.338;9.196;2023-05-07T15:42:30;14.80;66.70
41220;DHT22;26951;47.338;9.196;2023-05-07T15:45:14;14.80;66.60
41220;DHT22;26951;47.338;9.196;2023-05-07T15:47:59;14.70;67.40
41220;DHT22;26951;47.338;9.196;2023-05-07T15:50:43;14.70;67.20
41220;DHT22;26951;47.338;9.196;2023-05-07T15:53:27;14.60;67.20
41220;DHT22;26951;47.338;9.196;2023-05-07T15:56:11;14.60;68.90
41220;DHT22;26951;47.338;9.196;2023-05-07T15:58:55;14.50;70.00
41220;DHT22;26951;47.338;9.196;2023-05-07T16:01:40;14.50;70.90
41220;DHT22;26951;47.338;9.196;2023-05-07T16:04:25;14.50;71.00
41220;DHT22;26951;47.338;9.196;2023-05-07T16:07:10;14.40;70.60
41220;DHT22;26951;47.338;9.196;2023-05-07T16:09:55;14.40;70.50
41220;DHT22;26951;47.338;9.196;2023-05-07T16:12:39;14.40;71.40
41220;DHT22;26951;47.338;9.196;2023-05-07T16:15:23;14.30;71.70
41220;DHT22;26951;47.338;9.196;2023-05-07T16:18:07;14.20;72.10
41220;DHT22;26951;47.338;9.196;2023-05-07T16:20:52;14.20;72.70
41220;DHT22;26951;47.338;9.196;2023-05-07T16:23:37;14.10;72.80
41220;DHT22;26951;47.338;9.196;2023-05-07T16:26:21;14.10;73.50
41220;DHT22;26951;47.338;9.196;2023-05-07T16:29:05;14.00;73.90
41220;DHT22;26951;47.338;9.196;2023-05-07T16:31:52;14.00;74.40
41220;DHT22;26951;47.338;9.196;2023-05-07T16:34:36;14.00;75.50
41220;DHT22;26951;47.338;9.196;2023-05-07T16:37:20;13.90;76.30
41220;DHT22;26951;47.338;9.196;2023-05-07T16:40:06;13.90;77.00
41220;DHT22;26951;47.338;9.196;2023-05-07T16:42:50;13.80;76.90
41220;DHT22;26951;47.338;9.196;2023-05-07T16:45:34;13.70;75.90
41220;DHT22;26951;47.338;9.196;2023-05-07T16:48:18;13.70;75.70
41220;DHT22;26951;47.338;9.196;2023-05-07T16:51:02;13.60;74.00
41220;DHT22;26951;47.338;9.196;2023-05-07T16:53:47;13.50;73.80
41220;DHT22;26951;47.338;9.196;2023-05-07T16:56:32;13.50;74.60
41220;DHT22;26951;47.338;9.196;2023-05-07T16:59:16;13.50;74.60
41220;DHT22;26951;47.338;9.196;2023-05-07T17:02:01;13.40;74.80
41220;DHT22;26951;47.338;9.196;2023-05-07T17:04:45;13.30;75.30
41220;DHT22;26951;47.338;9.196;2023-05-07T17:07:29;13.20;75.50
41220;DHT22;26951;47.338;9.196;2023-05-07T17:10:14;13.20;75.60
41220;DHT22;26951;47.338;9.196;2023-05-07T17:12:58;13.10;75.60
41220;DHT22;26951;47.338;9.196;2023-05-07T17:15:42;13.10;75.60
41220;DHT22;26951;47.338;9.196;2023-05-07T17:18:30;13.10;75.20
41220;DHT22;26951;47.338;9.196;2023-05-07T17:21:14;13.10;74.70
41220;DHT22;26951;47.338;9.196;2023-05-07T17:23:58;13.10;75.20
41220;DHT22;26951;47.338;9.196;2023-05-07T17:26:42;13.00;74.80
41220;DHT22;26951;47.338;9.196;2023-05-07T17:29:28;13.00;75.10
41220;DHT22;26951;47.338;9.196;2023-05-07T17:32:13;13.00;75.20
41220;DHT22;26951;47.338;9.196;2023-05-07T17:34:57;13.00;74.90
41220;DHT22;26951;47.338;9.196;2023-05-07T17:37:42;13.00;74.60
41220;DHT22;26951;47.338;9.196;2023-05-07T17:40:29;13.00;73.80